Terminal Aerodrome Forecast
Issued by NWS Sioux Falls, SD

Home | Current Version | Previous Version | Graphics & Text | Print | Product List | Glossary On
Versions: 1 2 3 4 5 6 7 8 9 10 11 12 13 14 15 16
000
FTUS43 KFSD 222328
TAFFSD
TAF
KFSD 222328Z 2300/2324 33011G19KT P6SM VCSH SCT045 BKN080
     FM230400 34006KT P6SM BKN100
     FM231000 33007KT P6SM BKN030
     FM231200 33008KT P6SM VCSH BKN015 OVC040
     FM231700 34013G19KT P6SM -SHRA OVC020
     FM232000 35014G21KT P6SM BKN035=

USA.gov is the U.S. government's official web portal to all federal, state and local government web resources and services.